sensor_id;sensor_type;location;lat;lon;timestamp;P1;durP1;ratioP1;P2;durP2;ratioP2
55647;SDS011;45266;48.756;9.246;2023-11-21T00:01:06;3.00;;;1.90;;
55647;SDS011;45266;48.756;9.246;2023-11-21T00:06:10;13.80;;;2.23;;
55647;SDS011;45266;48.756;9.246;2023-11-21T00:11:14;6.37;;;1.67;;
55647;SDS011;45266;48.756;9.246;2023-11-21T00:16:17;6.37;;;2.00;;
55647;SDS011;45266;48.756;9.246;2023-11-21T00:21:20;5.30;;;2.10;;
55647;SDS011;45266;48.756;9.246;2023-11-21T00:26:23;2.70;;;2.03;;
55647;SDS011;45266;48.756;9.246;2023-11-21T00:31:25;2.47;;;2.17;;
55647;SDS011;45266;48.756;9.246;2023-11-21T00:36:27;3.60;;;2.00;;
55647;SDS011;45266;48.756;9.246;2023-11-21T00:41:29;4.60;;;1.80;;
55647;SDS011;45266;48.756;9.246;2023-11-21T00:46:30;5.03;;;1.90;;
55647;SDS011;45266;48.756;9.246;2023-11-21T00:51:33;4.20;;;2.40;;
55647;SDS011;45266;48.756;9.246;2023-11-21T00:56:35;2.50;;;1.73;;
55647;SDS011;45266;48.756;9.246;2023-11-21T01:01:37;14.93;;;2.80;;
55647;SDS011;45266;48.756;9.246;2023-11-21T01:06:39;5.50;;;1.67;;
55647;SDS011;45266;48.756;9.246;2023-11-21T01:11:41;3.80;;;2.23;;
55647;SDS011;45266;48.756;9.246;2023-11-21T01:16:44;2.07;;;1.83;;
55647;SDS011;45266;48.756;9.246;2023-11-21T01:21:46;2.60;;;2.27;;
55647;SDS011;45266;48.756;9.246;2023-11-21T01:26:48;2.50;;;2.00;;
55647;SDS011;45266;48.756;9.246;2023-11-21T01:31:50;2.27;;;1.70;;
55647;SDS011;45266;48.756;9.246;2023-11-21T01:36:53;3.20;;;1.30;;
55647;SDS011;45266;48.756;9.246;2023-11-21T01:41:55;18.43;;;2.27;;
55647;SDS011;45266;48.756;9.246;2023-11-21T01:46:59;2.53;;;1.63;;
55647;SDS011;45266;48.756;9.246;2023-11-21T01:52:06;3.23;;;1.47;;
55647;SDS011;45266;48.756;9.246;2023-11-21T01:57:08;2.17;;;1.30;;
55647;SDS011;45266;48.756;9.246;2023-11-21T02:02:10;2.40;;;1.40;;
55647;SDS011;45266;48.756;9.246;2023-11-21T02:07:12;1.50;;;1.00;;
55647;SDS011;45266;48.756;9.246;2023-11-21T02:12:14;11.73;;;1.40;;
55647;SDS011;45266;48.756;9.246;2023-11-21T02:17:16;2.60;;;1.40;;
55647;SDS011;45266;48.756;9.246;2023-11-21T02:22:19;3.00;;;1.87;;
55647;SDS011;45266;48.756;9.246;2023-11-21T02:27:21;3.87;;;0.80;;
55647;SDS011;45266;48.756;9.246;2023-11-21T02:32:24;1.27;;;1.17;;
55647;SDS011;45266;48.756;9.246;2023-11-21T02:37:27;1.20;;;1.10;;
55647;SDS011;45266;48.756;9.246;2023-11-21T02:42:29;1.10;;;1.00;;
55647;SDS011;45266;48.756;9.246;2023-11-21T02:47:31;1.97;;;0.90;;
55647;SDS011;45266;48.756;9.246;2023-11-21T02:52:33;6.53;;;1.30;;
55647;SDS011;45266;48.756;9.246;2023-11-21T02:57:35;3.70;;;1.03;;
55647;SDS011;45266;48.756;9.246;2023-11-21T03:02:37;3.00;;;1.17;;
55647;SDS011;45266;48.756;9.246;2023-11-21T03:07:41;3.70;;;3.40;;
55647;SDS011;45266;48.756;9.246;2023-11-21T03:12:43;3.27;;;1.10;;
55647;SDS011;45266;48.756;9.246;2023-11-21T03:17:45;1.57;;;1.00;;
55647;SDS011;45266;48.756;9.246;2023-11-21T03:22:50;2.33;;;0.90;;
55647;SDS011;45266;48.756;9.246;2023-11-21T03:27:52;1.13;;;1.00;;
55647;SDS011;45266;48.756;9.246;2023-11-21T03:32:54;1.57;;;0.80;;
55647;SDS011;45266;48.756;9.246;2023-11-21T03:37:56;2.40;;;0.90;;
55647;SDS011;45266;48.756;9.246;2023-11-21T03:42:58;2.00;;;0.90;;
55647;SDS011;45266;48.756;9.246;2023-11-21T03:48:00;4.93;;;1.13;;
55647;SDS011;45266;48.756;9.246;2023-11-21T03:53:03;1.37;;;0.90;;
55647;SDS011;45266;48.756;9.246;2023-11-21T03:58:05;1.43;;;0.90;;
55647;SDS011;45266;48.756;9.246;2023-11-21T04:03:06;2.20;;;0.80;;
55647;SDS011;45266;48.756;9.246;2023-11-21T04:08:08;2.60;;;0.83;;
55647;SDS011;45266;48.756;9.246;2023-11-21T04:13:10;2.63;;;0.90;;
55647;SDS011;45266;48.756;9.246;2023-11-21T04:18:12;1.13;;;0.80;;
55647;SDS011;45266;48.756;9.246;2023-11-21T04:23:14;2.73;;;1.00;;
55647;SDS011;45266;48.756;9.246;2023-11-21T04:28:16;1.37;;;1.00;;
55647;SDS011;45266;48.756;9.246;2023-11-21T04:33:18;3.70;;;1.17;;
55647;SDS011;45266;48.756;9.246;2023-11-21T04:38:20;3.70;;;1.17;;
55647;SDS011;45266;48.756;9.246;2023-11-21T04:43:22;1.30;;;0.90;;
55647;SDS011;45266;48.756;9.246;2023-11-21T04:48:23;3.70;;;0.90;;
55647;SDS011;45266;48.756;9.246;2023-11-21T04:53:26;1.10;;;1.00;;
55647;SDS011;45266;48.756;9.246;2023-11-21T04:58:28;0.80;;;0.80;;
55647;SDS011;45266;48.756;9.246;2023-11-21T05:03:30;3.20;;;0.93;;
55647;SDS011;45266;48.756;9.246;2023-11-21T05:08:32;3.50;;;0.93;;
55647;SDS011;45266;48.756;9.246;2023-11-21T05:13:33;1.10;;;1.00;;
55647;SDS011;45266;48.756;9.246;2023-11-21T05:18:36;2.93;;;1.00;;
55647;SDS011;45266;48.756;9.246;2023-11-21T05:23:38;6.50;;;1.20;;
55647;SDS011;45266;48.756;9.246;2023-11-21T05:28:40;0.83;;;0.80;;
55647;SDS011;45266;48.756;9.246;2023-11-21T05:33:42;2.00;;;0.83;;
55647;SDS011;45266;48.756;9.246;2023-11-21T05:38:44;2.93;;;1.10;;
55647;SDS011;45266;48.756;9.246;2023-11-21T05:43:47;2.00;;;1.37;;
55647;SDS011;45266;48.756;9.246;2023-11-21T05:48:49;1.00;;;0.80;;
55647;SDS011;45266;48.756;9.246;2023-11-21T05:53:51;1.50;;;0.70;;
55647;SDS011;45266;48.756;9.246;2023-11-21T05:58:53;3.10;;;1.13;;
55647;SDS011;45266;48.756;9.246;2023-11-21T06:03:55;1.37;;;0.80;;
55647;SDS011;45266;48.756;9.246;2023-11-21T06:08:59;1.17;;;1.07;;
55647;SDS011;45266;48.756;9.246;2023-11-21T06:14:01;5.17;;;1.13;;
55647;SDS011;45266;48.756;9.246;2023-11-21T06:19:03;2.40;;;1.20;;
55647;SDS011;45266;48.756;9.246;2023-11-21T06:24:06;0.77;;;0.77;;
55647;SDS011;45266;48.756;9.246;2023-11-21T06:29:08;0.77;;;0.77;;
55647;SDS011;45266;48.756;9.246;2023-11-21T06:34:10;2.43;;;1.50;;
55647;SDS011;45266;48.756;9.246;2023-11-21T06:39:12;1.17;;;0.60;;
55647;SDS011;45266;48.756;9.246;2023-11-21T06:44:16;7.50;;;3.50;;
55647;SDS011;45266;48.756;9.246;2023-11-21T06:49:18;7.30;;;0.80;;
55647;SDS011;45266;48.756;9.246;2023-11-21T06:54:20;1.20;;;0.83;;
55647;SDS011;45266;48.756;9.246;2023-11-21T06:59:22;2.03;;;0.90;;
55647;SDS011;45266;48.756;9.246;2023-11-21T07:04:25;1.33;;;0.80;;
55647;SDS011;45266;48.756;9.246;2023-11-21T07:09:27;1.87;;;1.53;;
55647;SDS011;45266;48.756;9.246;2023-11-21T07:14:29;2.43;;;0.80;;
55647;SDS011;45266;48.756;9.246;2023-11-21T07:19:31;1.23;;;0.80;;
55647;SDS011;45266;48.756;9.246;2023-11-21T07:24:33;1.27;;;1.10;;
55647;SDS011;45266;48.756;9.246;2023-11-21T07:29:36;2.37;;;1.50;;
55647;SDS011;45266;48.756;9.246;2023-11-21T07:34:39;1.63;;;1.50;;
55647;SDS011;45266;48.756;9.246;2023-11-21T07:39:41;15.87;;;4.57;;
55647;SDS011;45266;48.756;9.246;2023-11-21T07:44:44;7.07;;;2.87;;
55647;SDS011;45266;48.756;9.246;2023-11-21T07:49:48;10.27;;;5.23;;
55647;SDS011;45266;48.756;9.246;2023-11-21T07:54:50;5.23;;;1.93;;
55647;SDS011;45266;48.756;9.246;2023-11-21T07:59:52;2.23;;;1.57;;
55647;SDS011;45266;48.756;9.246;2023-11-21T08:04:55;2.40;;;1.13;;
55647;SDS011;45266;48.756;9.246;2023-11-21T08:09:58;1.33;;;1.23;;
55647;SDS011;45266;48.756;9.246;2023-11-21T08:15:00;2.10;;;2.00;;
55647;SDS011;45266;48.756;9.246;2023-11-21T08:20:04;3.73;;;3.07;;
55647;SDS011;45266;48.756;9.246;2023-11-21T08:25:08;2.70;;;2.23;;
55647;SDS011;45266;48.756;9.246;2023-11-21T08:30:10;2.70;;;1.80;;
55647;SDS011;45266;48.756;9.246;2023-11-21T08:35:14;3.10;;;2.17;;
55647;SDS011;45266;48.756;9.246;2023-11-21T08:40:17;5.80;;;2.03;;
55647;SDS011;45266;48.756;9.246;2023-11-21T08:45:21;2.67;;;1.90;;
55647;SDS011;45266;48.756;9.246;2023-11-21T08:50:23;3.43;;;1.43;;
55647;SDS011;45266;48.756;9.246;2023-11-21T08:55:25;2.10;;;1.60;;
55647;SDS011;45266;48.756;9.246;2023-11-21T09:00:29;2.30;;;1.83;;
55647;SDS011;45266;48.756;9.246;2023-11-21T09:05:31;1.33;;;1.03;;
55647;SDS011;45266;48.756;9.246;2023-11-21T09:10:34;2.10;;;1.90;;
55647;SDS011;45266;48.756;9.246;2023-11-21T09:15:38;2.10;;;1.67;;
55647;SDS011;45266;48.756;9.246;2023-11-21T09:20:42;2.07;;;1.87;;
55647;SDS011;45266;48.756;9.246;2023-11-21T09:25:47;1.97;;;1.40;;
55647;SDS011;45266;48.756;9.246;2023-11-21T09:30:51;1.80;;;1.63;;
55647;SDS011;45266;48.756;9.246;2023-11-21T09:35:53;3.73;;;2.17;;
55647;SDS011;45266;48.756;9.246;2023-11-21T09:40:55;3.47;;;2.10;;
55647;SDS011;45266;48.756;9.246;2023-11-21T09:46:00;1.50;;;1.00;;
55647;SDS011;45266;48.756;9.246;2023-11-21T09:51:07;1.63;;;1.03;;
55647;SDS011;45266;48.756;9.246;2023-11-21T09:56:10;6.53;;;1.20;;
55647;SDS011;45266;48.756;9.246;2023-11-21T10:01:13;1.37;;;1.10;;
55647;SDS011;45266;48.756;9.246;2023-11-21T10:06:17;3.10;;;1.70;;
55647;SDS011;45266;48.756;9.246;2023-11-21T10:11:20;1.97;;;1.60;;
55647;SDS011;45266;48.756;9.246;2023-11-21T10:16:25;1.27;;;1.13;;
55647;SDS011;45266;48.756;9.246;2023-11-21T10:21:28;1.13;;;1.03;;
55647;SDS011;45266;48.756;9.246;2023-11-21T10:26:31;3.07;;;1.40;;
55647;SDS011;45266;48.756;9.246;2023-11-21T10:31:51;1.40;;;1.30;;
55647;SDS011;45266;48.756;9.246;2023-11-21T10:36:56;1.30;;;1.20;;
55647;SDS011;45266;48.756;9.246;2023-11-21T10:41:59;1.10;;;1.00;;
55647;SDS011;45266;48.756;9.246;2023-11-21T10:47:02;1.37;;;1.03;;
55647;SDS011;45266;48.756;9.246;2023-11-21T10:52:04;1.40;;;1.20;;
55647;SDS011;45266;48.756;9.246;2023-11-21T10:57:07;1.40;;;1.30;;
55647;SDS011;45266;48.756;9.246;2023-11-21T11:02:14;2.70;;;1.30;;
55647;SDS011;45266;48.756;9.246;2023-11-21T11:07:25;2.40;;;1.13;;
55647;SDS011;45266;48.756;9.246;2023-11-21T11:12:31;1.50;;;1.40;;
55647;SDS011;45266;48.756;9.246;2023-11-21T11:17:36;1.03;;;1.00;;
55647;SDS011;45266;48.756;9.246;2023-11-21T11:38:31;5.50;;;3.10;;
55647;SDS011;45266;48.756;9.246;2023-11-21T11:43:37;3.37;;;3.07;;
55647;SDS011;45266;48.756;9.246;2023-11-21T11:48:47;2.83;;;1.60;;
55647;SDS011;45266;48.756;9.246;2023-11-21T11:54:07;4.00;;;1.90;;
55647;SDS011;45266;48.756;9.246;2023-11-21T11:59:09;3.77;;;2.40;;
55647;SDS011;45266;48.756;9.246;2023-11-21T12:09:35;5.40;;;3.13;;
55647;SDS011;45266;48.756;9.246;2023-11-21T12:14:38;4.77;;;3.20;;
55647;SDS011;45266;48.756;9.246;2023-11-21T12:19:41;4.07;;;3.30;;
55647;SDS011;45266;48.756;9.246;2023-11-21T12:24:43;3.60;;;2.30;;
55647;SDS011;45266;48.756;9.246;2023-11-21T12:29:46;3.40;;;2.30;;
55647;SDS011;45266;48.756;9.246;2023-11-21T12:34:50;3.60;;;2.77;;
55647;SDS011;45266;48.756;9.246;2023-11-21T12:39:53;5.20;;;2.60;;
55647;SDS011;45266;48.756;9.246;2023-11-21T12:45:08;4.27;;;3.00;;
55647;SDS011;45266;48.756;9.246;2023-11-21T12:50:21;3.10;;;2.47;;
55647;SDS011;45266;48.756;9.246;2023-11-21T12:55:35;1.50;;;1.40;;
55647;SDS011;45266;48.756;9.246;2023-11-21T13:00:44;0.90;;;0.90;;
55647;SDS011;45266;48.756;9.246;2023-11-21T13:05:50;0.50;;;0.50;;
55647;SDS011;45266;48.756;9.246;2023-11-21T13:10:56;0.80;;;0.80;;
55647;SDS011;45266;48.756;9.246;2023-11-21T13:16:00;0.80;;;0.73;;
55647;SDS011;45266;48.756;9.246;2023-11-21T13:21:04;1.63;;;1.13;;
55647;SDS011;45266;48.756;9.246;2023-11-21T13:26:19;2.73;;;1.07;;
55647;SDS011;45266;48.756;9.246;2023-11-21T13:31:24;2.90;;;1.00;;
55647;SDS011;45266;48.756;9.246;2023-11-21T13:36:31;1.40;;;1.30;;
55647;SDS011;45266;48.756;9.246;2023-11-21T13:41:37;2.50;;;1.93;;
55647;SDS011;45266;48.756;9.246;2023-11-21T13:46:44;3.27;;;2.23;;
55647;SDS011;45266;48.756;9.246;2023-11-21T13:51:52;2.50;;;2.10;;
55647;SDS011;45266;48.756;9.246;2023-11-21T13:56:58;1.63;;;1.53;;
55647;SDS011;45266;48.756;9.246;2023-11-21T14:02:04;1.80;;;1.70;;
55647;SDS011;45266;48.756;9.246;2023-11-21T14:07:32;1.70;;;1.23;;
55647;SDS011;45266;48.756;9.246;2023-11-21T14:12:38;2.60;;;1.67;;
55647;SDS011;45266;48.756;9.246;2023-11-21T14:17:42;4.63;;;1.80;;
55647;SDS011;45266;48.756;9.246;2023-11-21T14:22:45;2.83;;;1.97;;
55647;SDS011;45266;48.756;9.246;2023-11-21T14:27:49;2.10;;;1.67;;
55647;SDS011;45266;48.756;9.246;2023-11-21T14:32:52;3.80;;;1.70;;
55647;SDS011;45266;48.756;9.246;2023-11-21T14:37:54;2.17;;;1.60;;
55647;SDS011;45266;48.756;9.246;2023-11-21T14:42:59;2.03;;;1.83;;
55647;SDS011;45266;48.756;9.246;2023-11-21T14:48:13;3.10;;;2.13;;
55647;SDS011;45266;48.756;9.246;2023-11-21T14:53:34;2.70;;;2.27;;
55647;SDS011;45266;48.756;9.246;2023-11-21T14:59:00;4.00;;;2.20;;
55647;SDS011;45266;48.756;9.246;2023-11-21T15:04:24;2.00;;;1.60;;
55647;SDS011;45266;48.756;9.246;2023-11-21T15:09:40;1.97;;;1.60;;
55647;SDS011;45266;48.756;9.246;2023-11-21T15:14:46;1.67;;;1.40;;
55647;SDS011;45266;48.756;9.246;2023-11-21T15:19:51;2.50;;;1.60;;
55647;SDS011;45266;48.756;9.246;2023-11-21T15:24:57;2.60;;;1.80;;
55647;SDS011;45266;48.756;9.246;2023-11-21T15:30:20;2.17;;;1.53;;
55647;SDS011;45266;48.756;9.246;2023-11-21T15:35:26;1.97;;;1.73;;
55647;SDS011;45266;48.756;9.246;2023-11-21T15:40:32;4.67;;;1.87;;
55647;SDS011;45266;48.756;9.246;2023-11-21T15:45:35;2.73;;;2.20;;
55647;SDS011;45266;48.756;9.246;2023-11-21T15:50:37;2.37;;;1.70;;
55647;SDS011;45266;48.756;9.246;2023-11-21T15:55:39;2.27;;;1.87;;
55647;SDS011;45266;48.756;9.246;2023-11-21T16:00:44;5.67;;;1.90;;
55647;SDS011;45266;48.756;9.246;2023-11-21T16:05:46;2.90;;;2.37;;
55647;SDS011;45266;48.756;9.246;2023-11-21T16:10:51;2.33;;;2.00;;
55647;SDS011;45266;48.756;9.246;2023-11-21T16:16:03;6.67;;;2.87;;
55647;SDS011;45266;48.756;9.246;2023-11-21T16:21:10;3.33;;;2.43;;
55647;SDS011;45266;48.756;9.246;2023-11-21T16:26:13;3.58;;;2.53;;
55647;SDS011;45266;48.756;9.246;2023-11-21T16:31:22;6.17;;;3.57;;
55647;SDS011;45266;48.756;9.246;2023-11-21T16:36:25;5.13;;;2.70;;
55647;SDS011;45266;48.756;9.246;2023-11-21T16:41:27;6.83;;;3.10;;
55647;SDS011;45266;48.756;9.246;2023-11-21T16:46:29;4.80;;;3.23;;
55647;SDS011;45266;48.756;9.246;2023-11-21T16:51:31;5.00;;;3.00;;
55647;SDS011;45266;48.756;9.246;2023-11-21T16:56:34;4.60;;;3.10;;
55647;SDS011;45266;48.756;9.246;2023-11-21T17:01:37;5.00;;;2.70;;
55647;SDS011;45266;48.756;9.246;2023-11-21T17:06:39;5.57;;;3.57;;
55647;SDS011;45266;48.756;9.246;2023-11-21T17:11:42;4.10;;;2.80;;
55647;SDS011;45266;48.756;9.246;2023-11-21T17:16:46;8.40;;;3.20;;
55647;SDS011;45266;48.756;9.246;2023-11-21T17:21:51;11.03;;;3.63;;
55647;SDS011;45266;48.756;9.246;2023-11-21T17:26:53;4.80;;;2.87;;
55647;SDS011;45266;48.756;9.246;2023-11-21T17:31:55;6.97;;;3.10;;
55647;SDS011;45266;48.756;9.246;2023-11-21T17:36:57;8.93;;;4.07;;
55647;SDS011;45266;48.756;9.246;2023-11-21T17:41:58;12.07;;;4.73;;
55647;SDS011;45266;48.756;9.246;2023-11-21T17:47:01;7.00;;;4.60;;
55647;SDS011;45266;48.756;9.246;2023-11-21T17:52:03;7.67;;;4.97;;
55647;SDS011;45266;48.756;9.246;2023-11-21T17:57:07;9.30;;;5.43;;
55647;SDS011;45266;48.756;9.246;2023-11-21T18:02:09;8.33;;;5.60;;
55647;SDS011;45266;48.756;9.246;2023-11-21T18:07:11;12.00;;;6.17;;
55647;SDS011;45266;48.756;9.246;2023-11-21T18:12:14;12.10;;;5.47;;
55647;SDS011;45266;48.756;9.246;2023-11-21T18:17:17;11.73;;;6.77;;
55647;SDS011;45266;48.756;9.246;2023-11-21T18:22:22;10.50;;;6.20;;
55647;SDS011;45266;48.756;9.246;2023-11-21T18:27:31;10.67;;;5.87;;
55647;SDS011;45266;48.756;9.246;2023-11-21T18:32:38;8.47;;;6.27;;
55647;SDS011;45266;48.756;9.246;2023-11-21T18:37:45;10.00;;;5.40;;
55647;SDS011;45266;48.756;9.246;2023-11-21T18:42:53;10.37;;;6.30;;
55647;SDS011;45266;48.756;9.246;2023-11-21T18:48:00;14.27;;;6.60;;
55647;SDS011;45266;48.756;9.246;2023-11-21T18:53:09;10.90;;;6.83;;
55647;SDS011;45266;48.756;9.246;2023-11-21T18:58:14;11.13;;;7.27;;
55647;SDS011;45266;48.756;9.246;2023-11-21T19:03:26;9.77;;;6.40;;
55647;SDS011;45266;48.756;9.246;2023-11-21T19:08:40;8.23;;;4.33;;
55647;SDS011;45266;48.756;9.246;2023-11-21T19:13:48;9.70;;;4.47;;
55647;SDS011;45266;48.756;9.246;2023-11-21T19:18:51;11.00;;;5.40;;
55647;SDS011;45266;48.756;9.246;2023-11-21T19:23:54;10.13;;;5.50;;
55647;SDS011;45266;48.756;9.246;2023-11-21T19:28:59;11.33;;;4.43;;
55647;SDS011;45266;48.756;9.246;2023-11-21T19:34:03;6.50;;;4.40;;
55647;SDS011;45266;48.756;9.246;2023-11-21T19:39:07;9.47;;;5.43;;
55647;SDS011;45266;48.756;9.246;2023-11-21T19:44:10;16.60;;;6.07;;
55647;SDS011;45266;48.756;9.246;2023-11-21T19:49:15;10.40;;;5.37;;
55647;SDS011;45266;48.756;9.246;2023-11-21T19:54:18;16.20;;;5.57;;
55647;SDS011;45266;48.756;9.246;2023-11-21T19:59:21;8.93;;;5.50;;
55647;SDS011;45266;48.756;9.246;2023-11-21T20:04:26;8.00;;;5.37;;
55647;SDS011;45266;48.756;9.246;2023-11-21T20:09:28;7.40;;;5.40;;
55647;SDS011;45266;48.756;9.246;2023-11-21T20:14:32;6.37;;;4.10;;
55647;SDS011;45266;48.756;9.246;2023-11-21T20:19:36;9.30;;;5.50;;
55647;SDS011;45266;48.756;9.246;2023-11-21T20:24:38;8.90;;;4.57;;
55647;SDS011;45266;48.756;9.246;2023-11-21T20:29:41;7.30;;;4.60;;
55647;SDS011;45266;48.756;9.246;2023-11-21T20:34:43;11.90;;;5.20;;
55647;SDS011;45266;48.756;9.246;2023-11-21T20:39:46;10.03;;;5.70;;
55647;SDS011;45266;48.756;9.246;2023-11-21T20:44:50;7.83;;;4.73;;
55647;SDS011;45266;48.756;9.246;2023-11-21T20:49:53;11.83;;;5.30;;
55647;SDS011;45266;48.756;9.246;2023-11-21T20:55:00;17.03;;;4.50;;
55647;SDS011;45266;48.756;9.246;2023-11-21T21:00:03;8.60;;;5.10;;
55647;SDS011;45266;48.756;9.246;2023-11-21T21:05:12;11.70;;;5.33;;
55647;SDS011;45266;48.756;9.246;2023-11-21T21:10:17;10.43;;;5.27;;
55647;SDS011;45266;48.756;9.246;2023-11-21T21:15:19;9.23;;;5.13;;
55647;SDS011;45266;48.756;9.246;2023-11-21T21:20:22;9.70;;;5.50;;
55647;SDS011;45266;48.756;9.246;2023-11-21T21:25:24;14.40;;;5.00;;
55647;SDS011;45266;48.756;9.246;2023-11-21T21:30:27;11.20;;;5.03;;
55647;SDS011;45266;48.756;9.246;2023-11-21T21:35:29;10.67;;;4.77;;
55647;SDS011;45266;48.756;9.246;2023-11-21T21:40:32;10.50;;;5.10;;
55647;SDS011;45266;48.756;9.246;2023-11-21T21:45:36;6.63;;;4.37;;
55647;SDS011;45266;48.756;9.246;2023-11-21T21:50:39;11.43;;;4.80;;
55647;SDS011;45266;48.756;9.246;2023-11-21T21:55:41;12.20;;;4.60;;
55647;SDS011;45266;48.756;9.246;2023-11-21T22:00:44;12.67;;;4.93;;
55647;SDS011;45266;48.756;9.246;2023-11-21T22:05:46;17.53;;;4.83;;
55647;SDS011;45266;48.756;9.246;2023-11-21T22:10:49;10.47;;;4.93;;
55647;SDS011;45266;48.756;9.246;2023-11-21T22:15:51;10.63;;;5.30;;
55647;SDS011;45266;48.756;9.246;2023-11-21T22:20:54;7.70;;;4.57;;
55647;SDS011;45266;48.756;9.246;2023-11-21T22:25:57;17.03;;;5.73;;
55647;SDS011;45266;48.756;9.246;2023-11-21T22:30:59;11.43;;;4.50;;
55647;SDS011;45266;48.756;9.246;2023-11-21T22:36:02;13.83;;;6.53;;
55647;SDS011;45266;48.756;9.246;2023-11-21T22:41:05;10.73;;;5.57;;
55647;SDS011;45266;48.756;9.246;2023-11-21T22:46:08;10.90;;;4.60;;
55647;SDS011;45266;48.756;9.246;2023-11-21T22:51:10;10.17;;;5.40;;
55647;SDS011;45266;48.756;9.246;2023-11-21T22:56:12;9.87;;;5.50;;
55647;SDS011;45266;48.756;9.246;2023-11-21T23:01:16;10.53;;;5.17;;
55647;SDS011;45266;48.756;9.246;2023-11-21T23:06:22;14.87;;;6.03;;
55647;SDS011;45266;48.756;9.246;2023-11-21T23:11:26;9.37;;;6.07;;
55647;SDS011;45266;48.756;9.246;2023-11-21T23:16:29;13.80;;;5.23;;
55647;SDS011;45266;48.756;9.246;2023-11-21T23:21:32;15.00;;;6.83;;
55647;SDS011;45266;48.756;9.246;2023-11-21T23:26:36;8.90;;;5.50;;
55647;SDS011;45266;48.756;9.246;2023-11-21T23:31:40;11.60;;;5.20;;
55647;SDS011;45266;48.756;9.246;2023-11-21T23:36:43;9.67;;;5.20;;
55647;SDS011;45266;48.756;9.246;2023-11-21T23:41:47;10.23;;;4.90;;
55647;SDS011;45266;48.756;9.246;2023-11-21T23:46:50;11.30;;;5.40;;
55647;SDS011;45266;48.756;9.246;2023-11-21T23:51:52;10.50;;;5.70;;
55647;SDS011;45266;48.756;9.246;2023-11-21T23:56:55;10.10;;;5.90;;
